Time;durP1;ratioP1;P1;durP2;ratioP2;P2;SDS_P1;SDS_P2;PMS_P1;PMS_P2;Temp;Humidity;BMP_temperature;BMP_pressure;BME280_temperature;BME280_humidity;BME280_pressure;Samples;Min_cycle;Max_cycle;Signal;HPM_P1;HPM_P2
2021/06/21 00:02:23;;;;;;;7.63;5.47;;;24.30;72.70;;;;;;5116441;28;20484;-71
2021/06/21 00:04:52;;;;;;;6.77;5.30;;;24.20;72.80;;;;;;5116682;28;20500;-71
2021/06/21 00:07:19;;;;;;;8.30;5.63;;;24.10;73.10;;;;;;5116865;28;20438;-71
2021/06/21 00:09:46;;;;;;;6.17;5.63;;;24.10;73.60;;;;;;5116512;28;20465;-71
2021/06/21 00:12:14;;;;;;;5.83;5.23;;;24.10;74.10;;;;;;5116070;28;20984;-71
2021/06/21 00:14:42;;;;;;;6.10;5.40;;;24.00;74.30;;;;;;5116394;28;20936;-71
2021/06/21 00:17:10;;;;;;;6.03;5.43;;;24.00;74.30;;;;;;5116062;28;20919;-71
2021/06/21 00:19:36;;;;;;;7.10;5.90;;;24.00;74.60;;;;;;5116011;28;20889;-71
2021/06/21 00:22:06;;;;;;;6.53;5.93;;;24.00;74.90;;;;;;5116290;28;20438;-71
2021/06/21 00:24:33;;;;;;;7.63;7.00;;;24.00;75.30;;;;;;5116298;28;20451;-71
2021/06/21 00:27:00;;;;;;;7.17;6.13;;;23.90;75.10;;;;;;5116394;28;20446;-71
2021/06/21 00:29:26;;;;;;;8.67;6.53;;;23.90;75.10;;;;;;5116034;28;20481;-71
2021/06/21 00:31:53;;;;;;;9.87;8.97;;;23.90;75.60;;;;;;5116017;28;20561;-71
2021/06/21 00:34:20;;;;;;;11.27;7.67;;;23.80;76.10;;;;;;5116127;28;20496;-72
2021/06/21 00:36:47;;;;;;;9.83;8.83;;;23.80;76.30;;;;;;5116273;28;20450;-72
2021/06/21 00:39:15;;;;;;;9.63;8.73;;;23.70;76.60;;;;;;5115949;28;20462;-72
2021/06/21 00:41:42;;;;;;;11.53;9.30;;;23.80;77.00;;;;;;5115887;28;20443;-72
2021/06/21 00:44:09;;;;;;;11.30;10.17;;;23.70;76.90;;;;;;5115570;28;20450;-72
2021/06/21 00:46:35;;;;;;;14.87;10.20;;;23.70;77.60;;;;;;5115882;28;20439;-72
2021/06/21 00:49:02;;;;;;;10.70;9.70;;;23.70;77.90;;;;;;5115788;28;20470;-72
2021/06/21 00:51:30;;;;;;;11.87;10.70;;;23.60;78.40;;;;;;5115763;28;20443;-72
2021/06/21 00:53:57;;;;;;;13.77;12.27;;;23.60;78.60;;;;;;5115590;28;20478;-71
2021/06/21 00:56:25;;;;;;;13.57;12.27;;;23.60;78.70;;;;;;5115707;28;20768;-71
2021/06/21 00:58:58;;;;;;;14.83;13.33;;;23.60;79.20;;;;;;5114861;28;20438;-71
2021/06/21 01:01:25;;;;;;;14.93;13.13;;;23.60;79.30;;;;;;5115223;28;20776;-71
2021/06/21 01:03:51;;;;;;;14.07;12.00;;;23.60;79.80;;;;;;5115482;28;20450;-71
2021/06/21 01:06:18;;;;;;;15.53;14.00;;;23.60;80.20;;;;;;5115403;28;20442;-71
2021/06/21 01:08:45;;;;;;;15.50;13.97;;;23.50;80.30;;;;;;5115632;28;20450;-71
2021/06/21 01:11:12;;;;;;;16.63;15.17;;;23.50;80.50;;;;;;5115243;28;20442;-71
2021/06/21 01:14:09;;;;;;;14.83;13.53;;;23.50;80.80;;;;;;5115172;28;20845;-71
2021/06/21 01:16:42;;;;;;;20.80;18.70;;;23.60;81.30;;;;;;5108199;28;20461;-71
2021/06/21 01:19:12;;;;;;;17.23;15.63;;;23.60;82.00;;;;;;5115090;28;20474;-71
2021/06/21 01:22:12;;;;;;;20.97;18.20;;;23.50;82.00;;;;;;5115118;28;20496;-71
2021/06/21 01:25:16;;;;;;;16.47;14.87;;;23.50;82.70;;;;;;5114779;28;20904;-71
2021/06/21 01:27:58;;;;;;;15.47;14.17;;;23.40;82.90;;;;;;5115017;28;20430;-71
2021/06/21 01:30:40;;;;;;;18.87;17.27;;;23.30;83.10;;;;;;5114946;28;20459;-71
2021/06/21 01:33:10;;;;;;;19.90;18.10;;;23.30;83.40;;;;;;5114867;28;20462;-71
2021/06/21 01:35:39;;;;;;;21.60;19.90;;;23.30;83.60;;;;;;5114925;28;20771;-71
2021/06/21 01:38:09;;;;;;;22.03;20.00;;;23.30;84.00;;;;;;5114495;28;20822;-71
2021/06/21 01:40:41;;;;;;;21.20;19.30;;;23.40;84.30;;;;;;5114791;28;20466;-71
2021/06/21 01:43:12;;;;;;;20.13;17.87;;;23.40;83.80;;;;;;5114434;28;20826;-71
2021/06/21 01:45:41;;;;;;;19.57;17.60;;;23.30;84.30;;;;;;5114798;28;20435;-71
2021/06/21 01:48:10;;;;;;;20.30;18.70;;;23.40;84.50;;;;;;5114578;28;20970;-71
2021/06/21 01:50:38;;;;;;;20.37;18.60;;;23.30;84.00;;;;;;5114519;28;20469;-71
2021/06/21 01:53:08;;;;;;;20.70;19.20;;;23.30;84.30;;;;;;5114300;28;20999;-71
2021/06/21 01:55:40;;;;;;;19.53;17.90;;;23.30;84.40;;;;;;5114541;28;20442;-71
2021/06/21 01:58:08;;;;;;;21.60;19.90;;;23.20;84.70;;;;;;5114480;28;20525;-71
2021/06/21 02:00:35;;;;;;;21.57;19.97;;;23.20;85.80;;;;;;5114365;28;20462;-71
2021/06/21 02:03:02;;;;;;;27.30;25.30;;;23.20;84.90;;;;;;5114443;28;20435;-71
2021/06/21 02:05:33;;;;;;;26.30;24.37;;;23.20;84.60;;;;;;5114441;28;20443;-70
2021/06/21 02:08:01;;;;;;;26.30;24.50;;;23.10;84.60;;;;;;5114421;28;20459;-70
2021/06/21 02:10:28;;;;;;;28.03;25.93;;;23.00;84.50;;;;;;5113310;28;20475;-70
2021/06/21 02:12:56;;;;;;;28.47;26.13;;;23.00;85.90;;;;;;5114131;28;20478;-70
2021/06/21 02:15:23;;;;;;;29.70;27.40;;;22.90;85.70;;;;;;5114250;28;20450;-70
2021/06/21 02:17:51;;;;;;;30.77;28.47;;;22.90;86.70;;;;;;5114269;28;20443;-70
2021/06/21 02:20:18;;;;;;;31.97;29.60;;;22.80;86.50;;;;;;5113773;28;20485;-70
2021/06/21 02:22:48;;;;;;;30.53;28.37;;;22.80;86.70;;;;;;5114107;28;20446;-70
2021/06/21 02:25:15;;;;;;;26.30;24.10;;;22.70;87.10;;;;;;5114299;28;20571;-70
2021/06/21 02:27:43;;;;;;;31.30;28.90;;;22.80;87.50;;;;;;5114083;28;20449;-70
2021/06/21 02:30:13;;;;;;;30.57;28.30;;;22.80;87.30;;;;;;5114032;28;20459;-71
2021/06/21 02:32:43;;;;;;;31.20;28.90;;;22.80;87.50;;;;;;5113694;28;20990;-71
2021/06/21 02:35:11;;;;;;;24.80;23.10;;;22.80;87.50;;;;;;5113654;28;20931;-72
2021/06/21 02:37:38;;;;;;;23.90;22.30;;;22.80;87.50;;;;;;5113986;28;20442;-72
2021/06/21 02:40:09;;;;;;;20.70;19.27;;;22.90;87.60;;;;;;5113965;28;20467;-72
2021/06/21 02:42:35;;;;;;;20.97;19.57;;;22.90;87.20;;;;;;5113963;28;20892;-71
2021/06/21 02:45:03;;;;;;;23.50;21.60;;;23.00;87.30;;;;;;5113962;28;20808;-71
2021/06/21 02:47:30;;;;;;;22.63;21.03;;;23.00;87.10;;;;;;5113870;28;20446;-71
2021/06/21 02:49:57;;;;;;;21.17;19.60;;;23.00;86.90;;;;;;5113855;28;20477;-70
2021/06/21 02:52:35;;;;;;;19.93;18.53;;;23.00;86.70;;;;;;5113831;28;20445;-70
2021/06/21 02:55:12;;;;;;;20.80;19.20;;;23.00;86.40;;;;;;5113896;28;20441;-71
2021/06/21 02:57:50;;;;;;;17.37;15.97;;;23.10;86.60;;;;;;5113474;28;20896;-70
2021/06/21 03:00:18;;;;;;;15.83;14.73;;;23.10;86.40;;;;;;5113767;28;20461;-71
2021/06/21 03:02:46;;;;;;;16.03;14.83;;;23.10;86.50;;;;;;5113424;28;20439;-71
2021/06/21 03:05:15;;;;;;;15.40;14.40;;;23.10;86.40;;;;;;5113667;28;20472;-70
2021/06/21 03:07:43;;;;;;;17.17;16.07;;;23.10;86.30;;;;;;5113650;28;20500;-71
2021/06/21 03:10:14;;;;;;;17.00;15.80;;;23.10;86.40;;;;;;5113595;28;20474;-71
2021/06/21 03:12:44;;;;;;;14.97;13.87;;;23.10;86.10;;;;;;5113581;28;20427;-71
2021/06/21 03:15:13;;;;;;;13.47;12.47;;;23.10;85.70;;;;;;5113646;28;20477;-71
2021/06/21 03:17:41;;;;;;;12.43;11.63;;;23.10;85.90;;;;;;5113325;28;20947;-71
2021/06/21 03:20:09;;;;;;;12.80;11.93;;;23.10;85.80;;;;;;5113194;28;20470;-71
2021/06/21 03:22:38;;;;;;;12.67;11.87;;;23.10;85.60;;;;;;5115837;28;20443;-71
2021/06/21 03:25:05;;;;;;;12.40;11.50;;;23.10;85.70;;;;;;5117427;28;20455;-71
2021/06/21 03:27:36;;;;;;;12.30;11.43;;;23.10;85.40;;;;;;5117079;28;20955;-71
2021/06/21 03:30:06;;;;;;;10.73;10.00;;;23.10;85.40;;;;;;5117325;28;20817;-71
2021/06/21 03:32:37;;;;;;;9.43;8.70;;;23.00;85.30;;;;;;5117279;28;20449;-70
2021/06/21 03:35:08;;;;;;;10.30;9.40;;;23.00;85.40;;;;;;5117374;28;20431;-70
2021/06/21 03:37:35;;;;;;;9.90;9.20;;;22.90;85.30;;;;;;5116908;28;20442;-69
2021/06/21 03:40:02;;;;;;;8.47;7.77;;;23.00;85.80;;;;;;5117199;28;20463;-70
2021/06/21 03:42:29;;;;;;;8.50;8.00;;;23.00;86.00;;;;;;5116994;28;20450;-70
2021/06/21 03:44:57;;;;;;;8.60;7.90;;;22.90;85.80;;;;;;5117076;28;20439;-70
2021/06/21 03:47:24;;;;;;;7.80;7.20;;;22.90;85.70;;;;;;5116735;28;20442;-70
2021/06/21 03:49:51;;;;;;;9.70;8.80;;;22.90;85.70;;;;;;5116939;28;20469;-70
2021/06/21 03:52:17;;;;;;;6.93;6.43;;;22.90;85.70;;;;;;5116958;28;20799;-70
2021/06/21 03:54:44;;;;;;;7.87;7.33;;;22.90;85.90;;;;;;5116800;28;20505;-70
2021/06/21 03:57:11;;;;;;;7.13;6.60;;;22.90;85.40;;;;;;5116910;28;20454;-70
2021/06/21 03:59:38;;;;;;;6.60;6.10;;;22.80;85.40;;;;;;5116411;28;20971;-70
2021/06/21 04:02:06;;;;;;;7.23;6.83;;;22.80;85.60;;;;;;5116881;28;20446;-70
2021/06/21 04:04:33;;;;;;;7.40;6.90;;;22.80;85.50;;;;;;5116726;28;20447;-70
2021/06/21 04:07:00;;;;;;;6.80;6.20;;;22.80;85.60;;;;;;5116349;28;20443;-70
2021/06/21 04:09:27;;;;;;;6.80;6.40;;;22.80;85.20;;;;;;5116551;28;20474;-70
2021/06/21 04:11:54;;;;;;;5.90;5.60;;;22.80;86.10;;;;;;5116453;28;20447;-70
2021/06/21 04:14:20;;;;;;;6.50;6.00;;;22.80;84.80;;;;;;5116446;28;20832;-72
2021/06/21 04:16:47;;;;;;;5.50;5.10;;;22.80;84.70;;;;;;5116632;28;20450;-72
2021/06/21 04:19:15;;;;;;;7.20;6.77;;;22.80;85.00;;;;;;5116216;28;20475;-72
2021/06/21 04:21:42;;;;;;;6.97;6.50;;;22.80;84.70;;;;;;5116374;28;20446;-71
2021/06/21 04:24:09;;;;;;;7.63;7.13;;;22.80;84.60;;;;;;5116361;28;20423;-72
2021/06/21 04:26:37;;;;;;;7.37;6.80;;;22.70;83.80;;;;;;5115888;28;20485;-72
2021/06/21 04:29:05;;;;;;;7.10;6.70;;;22.70;83.60;;;;;;5116117;28;20471;-70
2021/06/21 04:31:32;;;;;;;6.50;6.10;;;22.70;83.60;;;;;;5116132;28;20500;-72
2021/06/21 04:33:59;;;;;;;7.67;7.27;;;22.60;83.60;;;;;;5114936;28;20478;-72
2021/06/21 04:36:27;;;;;;;7.93;7.43;;;22.60;83.70;;;;;;5115707;28;20446;-72
2021/06/21 04:38:54;;;;;;;6.57;6.17;;;22.50;83.90;;;;;;5115650;28;20927;-72
2021/06/21 04:41:20;;;;;;;8.10;7.60;;;22.50;83.60;;;;;;5116027;28;20439;-71
2021/06/21 04:43:47;;;;;;;6.47;6.07;;;22.40;83.20;;;;;;5115561;28;20443;-71
2021/06/21 04:46:14;;;;;;;7.53;6.90;;;22.40;83.70;;;;;;5115851;28;20447;-71
2021/06/21 04:48:42;;;;;;;5.90;5.33;;;22.20;82.90;;;;;;5115809;28;20423;-71
2021/06/21 04:51:09;;;;;;;7.70;7.10;;;22.10;83.10;;;;;;5115612;28;20447;-71
2021/06/21 04:53:37;;;;;;;7.23;6.73;;;22.00;83.70;;;;;;5115583;28;20870;-71
2021/06/21 04:56:05;;;;;;;14.43;6.30;;;21.90;84.00;;;;;;5115566;28;20924;-71
2021/06/21 04:58:34;;;;;;;6.53;6.13;;;21.70;84.00;;;;;;5115625;28;20439;-71
2021/06/21 05:01:01;;;;;;;6.87;6.17;;;21.70;84.40;;;;;;5115506;28;20463;-71
2021/06/21 05:03:28;;;;;;;7.97;6.13;;;21.70;84.70;;;;;;5115601;28;20450;-71
2021/06/21 05:05:57;;;;;;;6.17;5.77;;;21.60;84.40;;;;;;5115437;28;20534;-71
2021/06/21 05:08:24;;;;;;;7.00;6.50;;;21.60;84.20;;;;;;5115428;28;20435;-71
2021/06/21 05:10:52;;;;;;;7.13;6.53;;;21.50;84.90;;;;;;5115230;28;20480;-71
2021/06/21 05:13:19;;;;;;;10.50;7.50;;;21.40;84.60;;;;;;5115163;28;20439;-71
2021/06/21 05:15:46;;;;;;;8.17;7.57;;;21.40;84.60;;;;;;5115224;28;20447;-71
2021/06/21 05:18:12;;;;;;;8.03;7.27;;;21.40;85.00;;;;;;5115176;28;20443;-71
2021/06/21 05:20:39;;;;;;;9.60;8.80;;;21.40;85.20;;;;;;5114720;28;20471;-71
2021/06/21 05:23:06;;;;;;;8.97;8.37;;;21.40;85.30;;;;;;5114794;28;20449;-71
2021/06/21 05:25:33;;;;;;;10.10;9.37;;;21.40;85.20;;;;;;5115016;28;20454;-72
2021/06/21 05:28:02;;;;;;;10.37;9.37;;;21.50;84.80;;;;;;5115064;28;20461;-71
2021/06/21 05:30:29;;;;;;;10.33;9.33;;;21.50;84.80;;;;;;5114883;28;20475;-71
2021/06/21 05:32:56;;;;;;;10.27;9.37;;;21.50;84.60;;;;;;5114869;28;20442;-72
2021/06/21 05:35:23;;;;;;;11.40;10.50;;;21.50;84.10;;;;;;5115047;28;20475;-72
2021/06/21 05:37:50;;;;;;;10.27;9.27;;;21.50;84.60;;;;;;5114933;28;20431;-72
2021/06/21 05:40:18;;;;;;;10.60;9.90;;;21.60;84.40;;;;;;5114399;28;20968;-72
2021/06/21 05:42:45;;;;;;;11.60;10.63;;;21.70;84.10;;;;;;5114736;28;20443;-70
2021/06/21 05:45:15;;;;;;;11.10;10.07;;;21.90;84.10;;;;;;5114447;28;20442;-71
2021/06/21 05:47:42;;;;;;;12.67;11.67;;;22.00;83.20;;;;;;5114713;28;20453;-72
2021/06/21 05:50:09;;;;;;;12.47;11.37;;;22.00;82.70;;;;;;5114522;28;20455;-72
2021/06/21 05:52:36;;;;;;;12.03;11.13;;;22.10;82.10;;;;;;5114585;28;20816;-70
2021/06/21 05:55:04;;;;;;;13.57;12.37;;;22.10;81.80;;;;;;5114483;28;20478;-70
2021/06/21 05:57:30;;;;;;;12.57;11.67;;;22.20;81.90;;;;;;5114751;28;20447;-71
2021/06/21 05:59:58;;;;;;;13.10;12.00;;;22.10;81.50;;;;;;5114419;28;20465;-72
2021/06/21 06:02:26;;;;;;;15.80;14.27;;;22.10;81.70;;;;;;5114457;28;20427;-72
2021/06/21 06:04:53;;;;;;;17.00;15.43;;;22.10;81.70;;;;;;5114336;28;20447;-72
2021/06/21 06:07:20;;;;;;;16.43;15.03;;;22.00;81.20;;;;;;5114312;28;20442;-72
2021/06/21 06:09:49;;;;;;;15.30;14.00;;;21.90;81.50;;;;;;5114289;28;20470;-70
2021/06/21 06:12:16;;;;;;;14.90;13.70;;;21.90;81.90;;;;;;5114394;28;20427;-71
2021/06/21 06:14:43;;;;;;;15.07;13.73;;;21.90;82.10;;;;;;5114220;28;20494;-70
2021/06/21 06:17:10;;;;;;;15.20;13.97;;;21.90;82.10;;;;;;5114212;28;20471;-70
2021/06/21 06:19:38;;;;;;;16.83;15.20;;;21.90;81.70;;;;;;5114135;28;20998;-72
2021/06/21 06:22:05;;;;;;;14.47;13.27;;;21.90;80.50;;;;;;5114159;28;20443;-72
2021/06/21 06:24:31;;;;;;;16.10;14.50;;;21.80;80.90;;;;;;5113834;28;20571;-72
2021/06/21 06:26:58;;;;;;;14.70;13.40;;;21.70;81.10;;;;;;5114064;28;20529;-72
2021/06/21 06:29:28;;;;;;;14.67;13.37;;;21.70;81.80;;;;;;5113978;28;20462;-72
2021/06/21 06:31:55;;;;;;;13.10;12.00;;;21.60;81.70;;;;;;5113765;28;20442;-72
2021/06/21 06:34:23;;;;;;;13.07;11.97;;;21.50;81.90;;;;;;5114144;28;20474;-70
2021/06/21 06:36:52;;;;;;;12.80;11.70;;;21.50;82.00;;;;;;5113964;28;20446;-70
2021/06/21 06:39:18;;;;;;;12.63;11.60;;;21.40;81.50;;;;;;5113873;28;20812;-72
2021/06/21 06:41:45;;;;;;;11.13;10.20;;;21.40;81.90;;;;;;5114145;28;20438;-70
2021/06/21 06:44:12;;;;;;;11.53;10.43;;;21.30;82.50;;;;;;5113552;28;20916;-71
2021/06/21 06:46:38;;;;;;;10.83;9.73;;;21.30;82.40;;;;;;5114059;28;20439;-70
2021/06/21 06:49:05;;;;;;;12.10;10.20;;;21.30;82.20;;;;;;5113771;28;20828;-70
2021/06/21 06:51:39;;;;;;;10.07;8.97;;;21.30;82.50;;;;;;5113481;28;20951;-70
2021/06/21 06:54:11;;;;;;;10.03;9.10;;;21.20;82.00;;;;;;5113715;28;20568;-70
2021/06/21 06:59:22;;;;;;;9.40;8.70;;;21.20;82.50;;;;;;5117923;28;20441;-72
2021/06/21 07:01:49;;;;;;;9.50;8.67;;;21.00;82.10;;;;;;5117826;28;20442;-70
2021/06/21 07:04:16;;;;;;;9.87;8.87;;;20.90;82.30;;;;;;5117909;28;20430;-71
2021/06/21 07:06:43;;;;;;;9.00;8.30;;;21.00;83.20;;;;;;5117773;28;20473;-70
2021/06/21 07:09:11;;;;;;;9.90;9.10;;;20.90;83.20;;;;;;5117309;28;20466;-71
2021/06/21 07:11:38;;;;;;;10.40;9.50;;;21.00;83.80;;;;;;5117682;28;20447;-70
2021/06/21 07:14:05;;;;;;;8.83;8.13;;;21.10;83.90;;;;;;5117791;28;20478;-72
2021/06/21 07:16:32;;;;;;;6.80;6.30;;;21.20;84.00;;;;;;5117608;28;20449;-70
2021/06/21 07:18:59;;;;;;;5.60;5.20;;;21.10;82.40;;;;;;5117275;28;20469;-71
2021/06/21 07:21:26;;;;;;;6.93;6.30;;;21.10;81.90;;;;;;5117592;28;20431;-71
2021/06/21 07:23:53;;;;;;;6.20;5.70;;;21.00;82.30;;;;;;5117440;28;20446;-71
2021/06/21 07:26:21;;;;;;;6.77;6.17;;;21.00;82.70;;;;;;5117380;28;20775;-70
2021/06/21 07:28:48;;;;;;;6.73;6.23;;;20.90;82.70;;;;;;5117447;28;20438;-69
2021/06/21 07:31:14;;;;;;;6.50;6.10;;;20.80;82.60;;;;;;5117477;28;20825;-70
2021/06/21 07:33:41;;;;;;;7.13;6.50;;;20.70;83.10;;;;;;5117295;28;20423;-70
2021/06/21 07:36:08;;;;;;;6.23;5.83;;;20.70;83.80;;;;;;5117361;28;20490;-69
2021/06/21 07:38:35;;;;;;;6.50;6.00;;;20.50;83.70;;;;;;5117159;28;20442;-69
2021/06/21 07:41:03;;;;;;;7.50;6.87;;;20.50;84.50;;;;;;5116759;28;20458;-71
2021/06/21 07:43:31;;;;;;;7.67;7.00;;;20.40;84.80;;;;;;5116941;28;20442;-71
2021/06/21 07:45:57;;;;;;;9.10;7.57;;;20.40;84.00;;;;;;5116970;28;20816;-70
2021/06/21 07:48:24;;;;;;;6.70;6.00;;;20.40;85.00;;;;;;5116969;28;20419;-69
2021/06/21 07:50:51;;;;;;;7.63;4.27;;;20.40;84.20;;;;;;5116799;28;20459;-70
2021/06/21 07:53:18;;;;;;;5.47;4.13;;;20.30;83.90;;;;;;5116870;28;20446;-70
2021/06/21 07:55:45;;;;;;;4.23;3.77;;;20.40;84.50;;;;;;5116795;28;20459;-69
2021/06/21 07:58:11;;;;;;;4.37;3.90;;;20.30;83.70;;;;;;5116776;28;20431;-70
2021/06/21 08:00:40;;;;;;;4.33;3.63;;;20.40;84.50;;;;;;5116400;28;20824;-69
2021/06/21 08:03:10;;;;;;;2.83;2.50;;;20.40;85.00;;;;;;5116811;28;20427;-69
2021/06/21 08:05:38;;;;;;;3.37;3.17;;;20.30;83.40;;;;;;5116703;28;20435;-71
2021/06/21 08:08:05;;;;;;;3.53;2.63;;;20.40;84.80;;;;;;5116649;28;20423;-71
2021/06/21 08:10:32;;;;;;;2.20;2.00;;;20.40;84.60;;;;;;5116495;28;20467;-71
2021/06/21 08:12:59;;;;;;;2.47;1.77;;;20.50;83.60;;;;;;5116604;28;20445;-71
2021/06/21 08:15:25;;;;;;;2.73;1.47;;;20.50;83.40;;;;;;5116551;28;20823;-71
2021/06/21 08:17:54;;;;;;;0.77;0.77;;;20.50;83.90;;;;;;5116471;28;20427;-71
2021/06/21 08:20:20;;;;;;;0.80;0.50;;;20.60;82.40;;;;;;5115977;28;20839;-71
2021/06/21 08:22:47;;;;;;;1.67;0.60;;;20.60;82.30;;;;;;5116325;28;20439;-70
2021/06/21 08:25:14;;;;;;;2.40;0.63;;;20.40;82.40;;;;;;5116419;28;20442;-71
2021/06/21 08:27:41;;;;;;;1.00;0.67;;;20.40;82.90;;;;;;5116292;28;20446;-71
2021/06/21 08:30:09;;;;;;;1.03;0.60;;;20.30;83.00;;;;;;5116180;28;20968;-71
2021/06/21 08:32:36;;;;;;;2.90;0.60;;;20.40;82.80;;;;;;5115974;28;20427;-71
2021/06/21 08:35:05;;;;;;;1.60;0.70;;;20.50;83.00;;;;;;5115743;28;20991;-71
2021/06/21 08:37:32;;;;;;;3.17;0.90;;;20.60;82.00;;;;;;5116076;28;20442;-71
2021/06/21 08:39:58;;;;;;;1.23;0.93;;;20.60;81.60;;;;;;5115910;28;20458;-71
2021/06/21 08:42:25;;;;;;;0.80;0.43;;;20.70;82.10;;;;;;5115978;28;20852;-71
2021/06/21 08:44:52;;;;;;;5.43;2.33;;;20.70;81.30;;;;;;5115828;28;20423;-71
2021/06/21 08:47:19;;;;;;;0.93;0.50;;;20.60;81.30;;;;;;5115873;28;20438;-71
2021/06/21 08:49:48;;;;;;;4.27;1.23;;;20.40;82.20;;;;;;5115727;28;20558;-71
2021/06/21 08:52:20;;;;;;;1.13;0.40;;;20.30;82.40;;;;;;5115757;28;20439;-71
2021/06/21 08:54:47;;;;;;;0.70;0.50;;;20.20;83.00;;;;;;5115634;28;20462;-71
2021/06/21 08:57:14;;;;;;;1.60;0.40;;;20.10;83.30;;;;;;5115673;28;20453;-71
2021/06/21 08:59:41;;;;;;;1.33;0.50;;;20.00;85.00;;;;;;5115199;28;20459;-71
2021/06/21 09:02:09;;;;;;;0.47;0.47;;;20.00;84.40;;;;;;5115623;28;20427;-71
2021/06/21 09:04:39;;;;;;;0.80;0.80;;;20.00;84.90;;;;;;5115480;28;20439;-71
2021/06/21 09:07:20;;;;;;;0.43;0.43;;;19.90;84.30;;;;;;5115503;28;20517;-70
2021/06/21 09:09:48;;;;;;;0.60;0.60;;;19.70;84.90;;;;;;5115406;28;20467;-71
2021/06/21 09:12:21;;;;;;;1.40;0.70;;;19.60;85.70;;;;;;5115364;28;20807;-71
2021/06/21 09:14:48;;;;;;;0.87;0.80;;;19.50;85.90;;;;;;5115304;28;20466;-71
2021/06/21 09:17:19;;;;;;;5.93;1.03;;;19.40;86.30;;;;;;5115311;28;20739;-72
2021/06/21 09:19:51;;;;;;;1.07;0.43;;;19.50;87.00;;;;;;5114544;28;20506;-71
2021/06/21 09:22:31;;;;;;;0.60;0.60;;;19.70;86.40;;;;;;5114956;28;20893;-71
2021/06/21 09:25:00;;;;;;;0.63;0.63;;;19.90;86.00;;;;;;5114891;28;20419;-71
2021/06/21 09:27:27;;;;;;;0.50;0.43;;;20.00;83.60;;;;;;5115144;28;20459;-71
2021/06/21 09:29:54;;;;;;;0.53;0.53;;;19.90;84.90;;;;;;5114932;28;20459;-71
2021/06/21 09:32:22;;;;;;;0.40;0.40;;;20.00;85.20;;;;;;5114637;28;20450;-71
2021/06/21 09:34:49;;;;;;;0.40;0.40;;;20.20;84.60;;;;;;5114798;28;20478;-71
2021/06/21 09:37:19;;;;;;;0.70;0.40;;;20.30;83.80;;;;;;5115132;28;20431;-71
2021/06/21 09:39:52;;;;;;;0.60;0.47;;;20.60;84.00;;;;;;5114823;28;20491;-71
2021/06/21 09:42:23;;;;;;;3.60;0.30;;;20.80;83.00;;;;;;5114802;28;20427;-71
2021/06/21 09:44:52;;;;;;;0.30;0.30;;;20.90;82.50;;;;;;5114806;28;20427;-72
2021/06/21 09:47:27;;;;;;;0.73;0.47;;;21.20;81.80;;;;;;5115731;28;20435;-71
2021/06/21 09:50:10;;;;;;;0.40;0.30;;;21.40;79.60;;;;;;5114630;28;20463;-71
2021/06/21 09:52:43;;;;;;;1.03;0.30;;;21.40;79.10;;;;;;5114645;28;20422;-72
2021/06/21 09:55:24;;;;;;;1.23;0.40;;;21.50;79.00;;;;;;5114486;28;20470;-70
2021/06/21 09:58:06;;;;;;;0.53;0.37;;;21.60;77.60;;;;;;5115069;28;20427;-71
2021/06/21 10:00:34;;;;;;;1.13;0.40;;;21.70;77.60;;;;;;5114649;28;20474;-71
2021/06/21 10:03:13;;;;;;;0.40;0.40;;;21.80;77.60;;;;;;5114157;28;20453;-71
2021/06/21 10:05:42;;;;;;;1.70;0.40;;;21.90;76.50;;;;;;5114110;28;20800;-70
2021/06/21 10:08:11;;;;;;;0.40;0.40;;;21.90;76.90;;;;;;5114355;28;20427;-70
2021/06/21 10:10:40;;;;;;;0.40;0.30;;;21.90;77.90;;;;;;5114278;28;20462;-70
2021/06/21 10:13:08;;;;;;;0.40;0.30;;;22.00;77.30;;;;;;5114254;28;20450;-70
2021/06/21 10:15:35;;;;;;;0.50;0.30;;;21.90;76.90;;;;;;5114130;28;20482;-70
2021/06/21 10:18:04;;;;;;;0.50;0.30;;;21.80;76.20;;;;;;5114211;28;20443;-70
2021/06/21 10:20:30;;;;;;;0.40;0.37;;;21.80;76.30;;;;;;5113945;28;20475;-69
2021/06/21 10:22:58;;;;;;;0.60;0.43;;;21.70;76.50;;;;;;5114228;28;20419;-69
2021/06/21 10:25:25;;;;;;;4.10;0.50;;;21.60;77.00;;;;;;5114019;28;20449;-69
2021/06/21 10:27:54;;;;;;;2.70;0.47;;;21.50;77.30;;;;;;5114052;28;20446;-69
2021/06/21 10:30:21;;;;;;;1.10;0.50;;;21.60;78.00;;;;;;5114222;28;20469;-70
2021/06/21 10:32:50;;;;;;;0.70;0.40;;;21.80;78.50;;;;;;5113325;28;20446;-70
2021/06/21 10:35:19;;;;;;;1.20;0.50;;;21.80;77.80;;;;;;5113989;28;20467;-70
2021/06/21 10:37:57;;;;;;;0.40;0.40;;;21.80;76.80;;;;;;5114154;28;20419;-70
2021/06/21 10:40:25;;;;;;;0.50;0.50;;;21.90;77.70;;;;;;5113929;28;20458;-71
2021/06/21 10:42:53;;;;;;;0.30;0.30;;;21.90;76.60;;;;;;5113893;28;20445;-71
2021/06/21 10:45:22;;;;;;;0.50;0.37;;;22.00;76.80;;;;;;5113678;28;20928;-72
2021/06/21 10:47:50;;;;;;;0.43;0.43;;;22.20;77.00;;;;;;5113885;28;20435;-73
2021/06/21 10:50:26;;;;;;;0.40;0.30;;;22.40;76.50;;;;;;5113834;28;20458;-74
2021/06/21 10:53:01;;;;;;;1.23;0.40;;;22.70;74.60;;;;;;5113931;28;20488;-75
2021/06/21 10:55:42;;;;;;;0.50;0.50;;;22.80;73.00;;;;;;5113753;28;20802;-72
2021/06/21 10:58:39;;;;;;;0.40;0.30;;;22.80;71.30;;;;;;5113838;28;20438;-72
2021/06/21 11:01:13;;;;;;;0.40;0.30;;;23.00;71.70;;;;;;5113988;28;20463;-72
2021/06/21 11:03:41;;;;;;;0.50;0.33;;;23.50;71.30;;;;;;5113861;28;20427;-72
2021/06/21 11:06:09;;;;;;;0.40;0.37;;;23.90;69.00;;;;;;5113840;28;21003;-72
2021/06/21 11:08:46;;;;;;;1.00;0.63;;;24.00;65.90;;;;;;5113477;28;20924;-71
2021/06/21 11:11:38;;;;;;;0.50;0.40;;;23.90;67.20;;;;;;5113698;28;20480;-71
2021/06/21 11:14:09;;;;;;;0.80;0.77;;;23.80;66.80;;;;;;5113771;28;20473;-72
2021/06/21 11:16:36;;;;;;;0.60;0.50;;;23.50;66.90;;;;;;5113626;28;20463;-71
2021/06/21 11:19:26;;;;;;;0.53;0.53;;;23.40;67.10;;;;;;5113220;28;20451;-72
2021/06/21 11:21:55;;;;;;;0.50;0.50;;;23.20;67.60;;;;;;5113578;28;20485;-72
2021/06/21 11:24:49;;;;;;;1.80;0.90;;;23.10;68.70;;;;;;5113622;28;20526;-72
2021/06/21 11:27:17;;;;;;;1.40;0.70;;;23.00;69.10;;;;;;5115856;28;20419;-72
2021/06/21 11:29:47;;;;;;;0.73;0.60;;;22.70;67.80;;;;;;5114678;28;20508;-71
2021/06/21 11:32:15;;;;;;;0.53;0.53;;;22.60;69.70;;;;;;5114146;28;20427;-71
2021/06/21 11:34:48;;;;;;;0.70;0.60;;;22.40;70.00;;;;;;5113242;28;20443;-72
2021/06/21 11:37:34;;;;;;;2.10;0.63;;;22.20;69.90;;;;;;5113501;28;20483;-71
2021/06/21 11:40:26;;;;;;;0.90;0.60;;;22.10;71.30;;;;;;5113209;28;21054;-72
2021/06/21 11:43:18;;;;;;;0.63;0.63;;;22.00;71.80;;;;;;5114695;28;20431;-72
2021/06/21 11:46:04;;;;;;;1.27;0.60;;;21.80;72.50;;;;;;5117292;28;20427;-71
2021/06/21 11:48:33;;;;;;;0.40;0.37;;;21.70;72.50;;;;;;5117132;28;20422;-70
2021/06/21 11:51:01;;;;;;;0.80;0.60;;;21.40;72.90;;;;;;5117047;28;20458;-71
2021/06/21 11:53:30;;;;;;;0.63;0.63;;;21.30;74.30;;;;;;5117109;28;20423;-71
2021/06/21 11:55:57;;;;;;;0.87;0.87;;;21.00;75.00;;;;;;5116904;28;20481;-71
2021/06/21 11:58:25;;;;;;;0.80;0.80;;;20.80;74.90;;;;;;5117227;28;20419;-71
2021/06/21 12:00:52;;;;;;;0.80;0.70;;;20.70;76.80;;;;;;5116899;28;20465;-71
2021/06/21 12:03:29;;;;;;;1.00;0.87;;;20.50;77.70;;;;;;5116525;28;21011;-71
2021/06/21 12:05:56;;;;;;;1.73;0.70;;;20.40;77.90;;;;;;5116854;28;20434;-71
2021/06/21 12:08:23;;;;;;;1.30;1.20;;;20.20;79.30;;;;;;5116818;28;20431;-71
2021/06/21 12:10:49;;;;;;;0.90;0.90;;;20.20;80.20;;;;;;5116673;28;20462;-71
2021/06/21 12:13:20;;;;;;;1.10;1.00;;;20.30;79.80;;;;;;5116309;28;20450;-71
2021/06/21 12:15:47;;;;;;;1.07;1.07;;;20.40;80.90;;;;;;5116609;28;20798;-71
2021/06/21 12:18:23;;;;;;;1.07;1.07;;;20.40;78.40;;;;;;5116466;28;20445;-71
2021/06/21 12:20:51;;;;;;;1.10;1.10;;;20.30;79.10;;;;;;5116225;28;20469;-72
2021/06/21 12:23:18;;;;;;;1.10;1.10;;;20.40;79.70;;;;;;5116254;28;20424;-71
2021/06/21 12:25:47;;;;;;;1.20;1.20;;;20.40;78.70;;;;;;5117372;28;20750;-72
2021/06/21 12:28:16;;;;;;;1.27;1.27;;;20.30;78.80;;;;;;5116180;28;20904;-72
2021/06/21 12:30:46;;;;;;;1.57;1.47;;;20.30;80.20;;;;;;5116298;28;20463;-71
2021/06/21 12:33:28;;;;;;;1.30;1.27;;;20.30;79.30;;;;;;5116334;28;20843;-70
2021/06/21 12:36:06;;;;;;;1.17;0.97;;;20.30;80.30;;;;;;5116170;28;20554;-71
2021/06/21 12:38:32;;;;;;;1.30;1.30;;;20.40;79.90;;;;;;5115886;28;20923;-71
2021/06/21 12:40:59;;;;;;;1.70;1.60;;;20.40;79.40;;;;;;5116100;28;20462;-71
2021/06/21 12:43:26;;;;;;;1.30;1.30;;;20.50;78.70;;;;;;5116154;28;20472;-71
2021/06/21 12:45:53;;;;;;;1.40;1.40;;;20.60;79.10;;;;;;5116642;28;20446;-71
2021/06/21 12:48:19;;;;;;;2.13;2.03;;;20.70;77.70;;;;;;5115860;28;20450;-71
2021/06/21 12:50:46;;;;;;;1.73;1.63;;;20.70;77.30;;;;;;5115894;28;20462;-71
2021/06/21 12:53:15;;;;;;;1.77;1.53;;;20.70;77.20;;;;;;5115835;28;20451;-71
2021/06/21 12:55:42;;;;;;;1.20;1.20;;;20.90;78.50;;;;;;5114873;28;20575;-71